Terminal Aerodrome Forecast
Issued by NWS

Home | Current Version | Previous Version | Graphics & Text | Print | Product List | Glossary On
Versions: 1 2 3 4 5 6 7 8 9 10 11 12 13 14 15 16
000
FTUS43 KGRB 201700
TAFATW
TAF
KATW 201721Z 2018/2118 17005KT P6SM -SHRA SCT040 OVC070
      TEMPO 2018/2022 4SM SHRA BR BKN040
     FM202200 15009KT P6SM -SHRA SCT035 OVC080
     FM210200 14005KT P6SM -SHRA SCT030 OVC060
     FM210700 20005KT 6SM -SHRA BR SCT025 OVC050
      TEMPO 2109/2113 3SM SHRA BR BKN025
     FM211500 25005KT 5SM -SHRA BR SCT030 OVC060=

USA.gov is the U.S. government's official web portal to all federal, state and local government web resources and services.